createdAt,value
2023-01-17T00:00:55.033Z,100.00
2023-01-17T00:06:16.440Z,100.00
2023-01-17T00:11:20.157Z,100.00
2023-01-17T00:16:24.694Z,100.00
2023-01-17T00:21:45.269Z,100.00
2023-01-17T00:27:02.479Z,100.00
2023-01-17T00:32:06.269Z,100.00
2023-01-17T00:37:08.430Z,100.00
2023-01-17T00:42:10.478Z,100.00
2023-01-17T00:47:32.759Z,100.00
2023-01-17T00:52:52.995Z,100.00
2023-01-17T00:58:13.480Z,100.00
2023-01-17T01:03:35.768Z,100.00
2023-01-17T01:08:56.308Z,100.00
2023-01-17T01:14:18.218Z,100.00
2023-01-17T01:19:40.387Z,100.00
2023-01-17T01:25:01.003Z,100.00
2023-01-17T01:30:23.009Z,100.00
2023-01-17T01:35:27.971Z,100.00
2023-01-17T01:40:31.412Z,100.00
2023-01-17T01:45:34.557Z,100.00
2023-01-17T01:50:39.289Z,100.00
2023-01-17T01:55:45.525Z,100.00
2023-01-17T02:00:48.622Z,100.00
2023-01-17T02:05:53.748Z,100.00
2023-01-17T02:10:57.468Z,100.00
2023-01-17T02:16:12.493Z,100.00
2023-01-17T02:21:29.304Z,100.00
2023-01-17T02:26:57.659Z,100.00
2023-01-17T02:32:06.606Z,100.00
2023-01-17T02:37:17.392Z,100.00
2023-01-17T02:42:26.487Z,100.00
2023-01-17T02:47:32.827Z,100.00
2023-01-17T02:52:50.657Z,100.00
2023-01-17T02:58:04.134Z,100.00
2023-01-17T03:03:21.595Z,100.00
2023-01-17T03:08:25.328Z,100.00
2023-01-17T03:13:28.716Z,100.00
2023-01-17T03:18:33.391Z,100.00
2023-01-17T03:23:36.525Z,100.00
2023-01-17T03:28:39.729Z,100.00
2023-01-17T03:33:44.575Z,100.00
2023-01-17T03:38:47.647Z,100.00
2023-01-17T03:43:50.704Z,100.00
2023-01-17T03:48:55.423Z,100.00
2023-01-17T03:53:58.548Z,100.00
2023-01-17T03:59:02.067Z,100.00
2023-01-17T04:04:06.642Z,100.00
2023-01-17T04:09:09.915Z,100.00
2023-01-17T04:14:12.977Z,100.00
2023-01-17T04:19:17.485Z,100.00
2023-01-17T04:24:20.755Z,100.00
2023-01-17T04:29:26.827Z,100.00
2023-01-17T04:34:31.333Z,100.00
2023-01-17T04:39:34.528Z,100.00
2023-01-17T04:44:37.699Z,100.00
2023-01-17T04:49:44.062Z,100.00
2023-01-17T04:54:49.446Z,100.00
2023-01-17T04:59:53.716Z,100.00
2023-01-17T05:04:58.195Z,100.00
2023-01-17T05:10:02.181Z,100.00
2023-01-17T05:15:06.736Z,100.00
2023-01-17T05:20:13.139Z,100.00
2023-01-17T05:25:16.520Z,100.00
2023-01-17T05:30:20.271Z,100.00
2023-01-17T05:35:27.031Z,100.00
2023-01-17T05:40:32.934Z,100.00
2023-01-17T05:45:36.279Z,100.00
2023-01-17T05:50:41.237Z,100.00
2023-01-17T05:55:45.641Z,100.00
2023-01-17T06:00:49.937Z,100.00
2023-01-17T06:05:54.713Z,100.00
2023-01-17T06:11:00.261Z,100.00
2023-01-17T06:16:04.232Z,100.00
2023-01-17T06:21:10.321Z,100.00
2023-01-17T06:26:13.452Z,100.00
2023-01-17T06:31:16.621Z,100.00
2023-01-17T06:36:21.177Z,100.00
2023-01-17T06:41:25.892Z,100.00
2023-01-17T06:46:29.205Z,100.00
2023-01-17T06:51:35.079Z,100.00
2023-01-17T06:56:38.632Z,100.00
2023-01-17T07:01:42.066Z,100.00
2023-01-17T07:06:46.523Z,100.00
2023-01-17T07:11:51.810Z,100.00
2023-01-17T07:16:55.098Z,99.32
2023-01-17T07:21:59.767Z,100.00
2023-01-17T07:27:03.111Z,100.00
2023-01-17T07:32:08.843Z,100.00
2023-01-17T07:37:15.179Z,100.00
2023-01-17T07:42:18.611Z,100.00
2023-01-17T07:47:22.144Z,100.00
2023-01-17T07:52:26.746Z,100.00
2023-01-17T07:57:30.276Z,99.88
2023-01-17T08:02:33.488Z,100.00
2023-01-17T08:07:40.786Z,100.00
2023-01-17T08:12:43.888Z,99.38
2023-01-17T08:17:48.176Z,100.00
2023-01-17T08:22:56.522Z,98.74
2023-01-17T08:28:00.219Z,99.78
2023-01-17T08:33:03.483Z,100.00
2023-01-17T08:38:08.074Z,99.98
2023-01-17T08:43:11.279Z,100.00
2023-01-17T08:48:14.406Z,99.55
2023-01-17T08:53:21.652Z,99.80
2023-01-17T08:58:24.853Z,99.75
2023-01-17T09:03:27.907Z,99.05
2023-01-17T09:08:32.657Z,99.61
2023-01-17T09:13:36.050Z,96.84
2023-01-17T09:18:39.290Z,98.48
2023-01-17T09:23:44.854Z,98.57
2023-01-17T09:28:48.093Z,99.55
2023-01-17T09:33:52.241Z,97.87
2023-01-17T09:38:58.951Z,96.08
2023-01-17T09:44:07.317Z,94.69
2023-01-17T09:49:17.179Z,93.83
2023-01-17T09:54:23.309Z,92.20
2023-01-17T09:59:35.001Z,91.63
2023-01-17T10:05:00.286Z,90.61
2023-01-17T10:10:19.087Z,91.39
2023-01-17T10:15:50.739Z,90.41
2023-01-17T10:21:01.113Z,90.98
2023-01-17T10:26:09.133Z,91.25
2023-01-17T10:31:19.417Z,91.01
2023-01-17T10:36:24.557Z,90.79
2023-01-17T10:41:31.918Z,91.05
2023-01-17T10:46:40.691Z,88.37
2023-01-17T10:52:00.178Z,88.17
2023-01-17T10:57:05.740Z,84.75
2023-01-17T11:02:20.090Z,84.60
2023-01-17T11:07:25.504Z,83.57
2023-01-17T11:12:32.506Z,81.51
2023-01-17T11:17:38.058Z,84.41
2023-01-17T11:22:41.137Z,84.02
2023-01-17T11:27:59.067Z,83.51
2023-01-17T11:33:06.092Z,83.94
2023-01-17T11:38:17.685Z,81.43
2023-01-17T11:43:27.380Z,80.02
2023-01-17T11:48:36.912Z,82.26
2023-01-17T11:53:47.108Z,81.25
2023-01-17T11:58:52.200Z,81.58
2023-01-17T12:04:23.060Z,81.58
2023-01-17T12:09:33.661Z,82.56
2023-01-17T12:14:47.567Z,81.94
2023-01-17T12:20:04.915Z,82.75
2023-01-17T12:25:28.113Z,84.58
2023-01-17T12:30:49.823Z,88.87
2023-01-17T12:35:57.433Z,88.49
2023-01-17T12:41:06.384Z,90.50
2023-01-17T12:46:20.806Z,91.26
2023-01-17T12:51:29.423Z,89.63
2023-01-17T12:56:37.393Z,88.74
2023-01-17T13:01:44.975Z,90.33
2023-01-17T13:06:57.756Z,88.38
2023-01-17T13:12:05.606Z,85.50
2023-01-17T13:17:25.753Z,87.27
2023-01-17T13:22:29.988Z,88.42
2023-01-17T13:28:02.875Z,87.42
2023-01-17T13:33:27.025Z,86.79
2023-01-17T13:38:38.488Z,85.08
2023-01-17T13:44:05.062Z,84.89
2023-01-17T13:49:35.043Z,85.47
2023-01-17T13:54:45.868Z,84.22
2023-01-17T13:59:48.999Z,84.08
2023-01-17T14:05:12.075Z,82.82
2023-01-17T14:10:33.924Z,88.64
2023-01-17T14:15:49.670Z,85.80
2023-01-17T14:21:11.319Z,85.43
2023-01-17T14:26:33.159Z,88.71
2023-01-17T14:31:36.502Z,87.70
2023-01-17T14:36:41.178Z,87.23
2023-01-17T14:41:44.862Z,88.92
2023-01-17T14:46:49.987Z,86.48
2023-01-17T14:52:02.114Z,87.08
2023-01-17T14:57:26.621Z,87.23
2023-01-17T15:02:29.940Z,88.93
2023-01-17T15:07:34.650Z,91.09
2023-01-17T15:12:38.848Z,90.51
2023-01-17T15:17:42.238Z,90.48
2023-01-17T15:22:47.246Z,91.29
2023-01-17T15:27:50.683Z,91.94
2023-01-17T15:32:53.912Z,92.88
2023-01-17T15:37:58.928Z,92.88
2023-01-17T15:43:02.069Z,96.92
2023-01-17T15:48:34.737Z,96.83
2023-01-17T15:53:44.105Z,100.00
2023-01-17T15:58:50.309Z,100.00
2023-01-17T16:03:55.251Z,100.00
2023-01-17T16:09:00.028Z,100.00
2023-01-17T16:14:03.287Z,100.00
2023-01-17T16:19:07.355Z,100.00
2023-01-17T16:24:12.564Z,100.00
2023-01-17T16:29:15.950Z,100.00
2023-01-17T16:34:19.200Z,100.00
2023-01-17T16:39:23.858Z,100.00
2023-01-17T16:44:26.962Z,100.00
2023-01-17T16:49:32.876Z,100.00
2023-01-17T16:54:37.485Z,100.00
2023-01-17T16:59:50.407Z,100.00
2023-01-17T17:04:54.046Z,100.00
2023-01-17T17:09:58.871Z,100.00
2023-01-17T17:15:02.036Z,100.00
2023-01-17T17:20:06.041Z,100.00
2023-01-17T17:25:12.375Z,100.00
2023-01-17T17:30:16.093Z,100.00
2023-01-17T17:35:19.288Z,100.00
2023-01-17T17:40:23.868Z,100.00
2023-01-17T17:45:27.091Z,100.00
2023-01-17T17:50:30.249Z,100.00
2023-01-17T17:55:36.310Z,100.00
2023-01-17T18:00:39.562Z,100.00
2023-01-17T18:05:43.247Z,100.00
2023-01-17T18:10:47.891Z,100.00
2023-01-17T18:15:51.041Z,100.00
2023-01-17T18:20:54.285Z,100.00
2023-01-17T18:25:58.987Z,100.00
2023-01-17T18:31:08.969Z,100.00
2023-01-17T18:36:13.893Z,100.00
2023-01-17T18:41:20.620Z,100.00
2023-01-17T18:46:25.865Z,100.00
2023-01-17T18:51:31.932Z,100.00
2023-01-17T18:56:36.557Z,100.00
2023-01-17T19:01:42.309Z,100.00
2023-01-17T19:06:48.737Z,100.00
2023-01-17T19:11:53.409Z,100.00
2023-01-17T19:16:57.536Z,100.00
2023-01-17T19:22:00.662Z,100.00
2023-01-17T19:27:07.102Z,100.00
2023-01-17T19:32:11.742Z,100.00
2023-01-17T19:37:15.180Z,100.00
2023-01-17T19:42:20.494Z,100.00
2023-01-17T19:47:23.683Z,100.00
2023-01-17T19:52:27.428Z,100.00
2023-01-17T19:57:34.948Z,100.00
2023-01-17T20:02:39.304Z,100.00
2023-01-17T20:07:42.583Z,100.00
2023-01-17T20:12:47.498Z,100.00
2023-01-17T20:17:51.140Z,100.00
2023-01-17T20:22:55.129Z,100.00
2023-01-17T20:28:00.036Z,100.00
2023-01-17T20:33:03.316Z,100.00
2023-01-17T20:38:07.939Z,100.00
2023-01-17T20:43:12.487Z,100.00
2023-01-17T20:48:16.075Z,100.00
2023-01-17T20:53:19.347Z,100.00
2023-01-17T20:58:24.198Z,100.00
2023-01-17T21:03:29.584Z,100.00
2023-01-17T21:08:34.701Z,100.00
2023-01-17T21:13:40.918Z,100.00
2023-01-17T21:18:46.996Z,100.00
2023-01-17T21:23:52.409Z,100.00
2023-01-17T21:29:00.142Z,100.00
2023-01-17T21:34:05.204Z,100.00
2023-01-17T21:39:11.815Z,100.00
2023-01-17T21:44:19.264Z,100.00
2023-01-17T21:49:22.953Z,100.00
2023-01-17T21:54:41.723Z,100.00
2023-01-17T21:59:46.370Z,100.00
2023-01-17T22:04:49.746Z,100.00
2023-01-17T22:09:53.125Z,100.00
2023-01-17T22:14:57.797Z,100.00
2023-01-17T22:20:01.131Z,100.00
2023-01-17T22:25:04.365Z,100.00
2023-01-17T22:30:13.019Z,100.00
2023-01-17T22:35:16.655Z,100.00
2023-01-17T22:40:20.234Z,100.00
2023-01-17T22:45:25.954Z,100.00
2023-01-17T22:50:29.365Z,100.00
2023-01-17T22:55:32.980Z,100.00
2023-01-17T23:00:37.973Z,100.00
2023-01-17T23:05:46.533Z,100.00
2023-01-17T23:11:15.643Z,100.00
2023-01-17T23:16:37.414Z,100.00
2023-01-17T23:21:57.825Z,100.00
2023-01-17T23:27:18.724Z,100.00
2023-01-17T23:32:23.639Z,100.00
2023-01-17T23:37:44.477Z,100.00
2023-01-17T23:43:05.372Z,100.00
2023-01-17T23:48:10.703Z,100.00
2023-01-17T23:53:22.467Z,100.00
2023-01-17T23:58:27.550Z,100.00
